MSC Ludovica — HPAF — position and weather

sailwx.info

Track history (hours):
 
Tides and Currents Weather Stations Pressure Air Temp Water Temp Dewpoint Dewpoint Depression Visibility Wind Speed Wind Dir Waves Ship Positions

MSC Ludovica

Last reported at 2014-Aug-30 13:33 UTC. Time now 2014-Aug-30 16:34 UTC.
Position N 36°33' E 014°03'.

Length 300 m; draft 11 m.

Type: Ship. MMSI: 351248000.

Date/timePositionNaut miles runAvg speedWind from/ knotsBaromVisibWave heightAir tempDewpointWater temp
2014-Aug-30 13:33N 36°33' E 014°03'2121.2
2014-Aug-30 12:33N 36°27' E 014°28'41920.8
2014-Aug-29 16:26N 36°23' E 023°09'1920.3
2014-Aug-29 15:31N 36°34' E 023°28'2921.1
2014-Aug-29 14:09N 36°57' E 023°49'1621.4
2014-Aug-29 13:25N 37°10' E 024°01'1921.2
2014-Aug-29 12:31N 37°26' E 024°15'1919.9
2014-Aug-29 11:33N 37°39' E 024°32'8817.3
2014-Aug-29 06:27N 38°47' E 025°43'17 0.4
2014-Aug-27 06:29N 39°04' E 025°42'2121.6
2014-Aug-27 05:30N 39°26' E 025°42'2221.5
2014-Aug-27 04:30N 39°47' E 025°45'2320.2
2014-Aug-27 03:21N 40°01' E 026°08'135 3.8
2014-Aug-25 15:31N 40°26' E 029°03'1615.4
2014-Aug-25 14:27N 40°29' E 028°42'2319.7
2014-Aug-25 13:16N 40°52' E 028°40'6 0.4
2014-Aug-24 21:33N 40°58' E 028°40'0 0.0
2014-Aug-24 20:33N 40°58' E 028°40'0 0.0
2014-Aug-24 13:09N 40°58' E 028°40'0 0.0
2014-Aug-24 04:24N 40°58' E 028°40'2 0.9
2014-Aug-24 02:29N 40°56' E 028°41'4 4.3
2014-Aug-24 01:31N 40°52' E 028°40'2417.7
2014-Aug-24 00:11N 40°47' E 028°10'1320.4
2014-Aug-23 23:33N 40°45' E 027°53'4719.7
2014-Aug-23 21:11N 40°29' E 026°56'29016.4
2014-Aug-23 03:33N 36°31' E 023°24'1919.2
2014-Aug-23 02:33N 36°24' E 023°02'2120.9
2014-Aug-23 01:33N 36°20' E 022°36'34221.4
2014-Aug-22 09:32N 36°21' E 015°32'2320.6
2014-Aug-22 08:27N 36°21' E 015°04'1921.0
2014-Aug-22 07:33N 36°23' E 014°41'2121.1
2014-Aug-22 06:33N 36°30' E 014°16'2120.9
2014-Aug-22 05:33N 36°36' E 013°51'2120.9
2014-Aug-22 04:33N 36°41' E 013°25'2121.0
2014-Aug-22 03:33N 36°47' E 013°00'6220.8
2014-Aug-22 00:33N 37°06' E 011°46'2221.2
2014-Aug-21 23:32N 37°17' E 011°22'2121.0
2014-Aug-21 22:33N 37°27' E 010°60'2121.4
2014-Aug-21 21:33N 37°33' E 010°34'2221.6
2014-Aug-21 20:33N 37°35' E 010°07'2121.4
2014-Aug-21 19:33N 37°31' E 009°40'2221.3
2014-Aug-21 18:33N 37°27' E 009°14'2221.2
2014-Aug-21 17:31N 37°22' E 008°47'23320.8
2014-Aug-21 06:18N 37°19' E 003°53'6221.5
2014-Aug-21 03:25N 37°05' E 002°37'1821.0
2014-Aug-21 02:32N 37°03' E 002°14'2121.4
2014-Aug-21 01:32N 36°60' E 001°48'2121.4
2014-Aug-21 00:33N 36°55' E 001°22'2121.5
2014-Aug-20 23:33N 36°51' E 000°56'2121.2
2014-Aug-20 22:33N 36°46' E 000°30'2221.8
2014-Aug-20 21:33N 36°43' E 000°03'2322.5
2014-Aug-20 20:33N 36°38' W 000°24'2221.8
2014-Aug-20 19:33N 36°33' W 000°51'2221.7
2014-Aug-20 18:33N 36°30' W 001°17'2121.1
2014-Aug-20 17:33N 36°26' W 001°43'2221.4
2014-Aug-20 16:32N 36°22' W 002°10'  
Track history (hours):
 
Tides and Currents Weather Stations Pressure Air Temp Water Temp Dewpoint Dewpoint Depression Visibility Wind Speed Wind Dir Waves Ship Positions

MSC Ludovica

Last reported at 2014-Aug-30 13:33 UTC. Time now 2014-Aug-30 16:34 UTC.
Position N 36°33' E 014°03'.

Length 300 m; draft 11 m.

Type: Ship. MMSI: 351248000.

Date/timePositionNaut miles runAvg speedWind from/ knotsBaromVisibWave heightAir tempDewpointWater temp
2014-Aug-30 13:33N 36°33' E 014°03'2121.2
2014-Aug-30 12:33N 36°27' E 014°28'41920.8
2014-Aug-29 16:26N 36°23' E 023°09'1920.3
2014-Aug-29 15:31N 36°34' E 023°28'2921.1
2014-Aug-29 14:09N 36°57' E 023°49'1621.4
2014-Aug-29 13:25N 37°10' E 024°01'1921.2
2014-Aug-29 12:31N 37°26' E 024°15'1919.9
2014-Aug-29 11:33N 37°39' E 024°32'8817.3
2014-Aug-29 06:27N 38°47' E 025°43'17 0.4
2014-Aug-27 06:29N 39°04' E 025°42'2121.6
2014-Aug-27 05:30N 39°26' E 025°42'2221.5
2014-Aug-27 04:30N 39°47' E 025°45'2320.2
2014-Aug-27 03:21N 40°01' E 026°08'135 3.8
2014-Aug-25 15:31N 40°26' E 029°03'1615.4
2014-Aug-25 14:27N 40°29' E 028°42'2319.7
2014-Aug-25 13:16N 40°52' E 028°40'6 0.4
2014-Aug-24 21:33N 40°58' E 028°40'0 0.0
2014-Aug-24 20:33N 40°58' E 028°40'0 0.0
2014-Aug-24 13:09N 40°58' E 028°40'0 0.0
2014-Aug-24 04:24N 40°58' E 028°40'2 0.9
2014-Aug-24 02:29N 40°56' E 028°41'4 4.3
2014-Aug-24 01:31N 40°52' E 028°40'2417.7
2014-Aug-24 00:11N 40°47' E 028°10'1320.4
2014-Aug-23 23:33N 40°45' E 027°53'4719.7
2014-Aug-23 21:11N 40°29' E 026°56'29016.4
2014-Aug-23 03:33N 36°31' E 023°24'1919.2
2014-Aug-23 02:33N 36°24' E 023°02'2120.9
2014-Aug-23 01:33N 36°20' E 022°36'34221.4
2014-Aug-22 09:32N 36°21' E 015°32'2320.6
2014-Aug-22 08:27N 36°21' E 015°04'1921.0
2014-Aug-22 07:33N 36°23' E 014°41'2121.1
2014-Aug-22 06:33N 36°30' E 014°16'2120.9
2014-Aug-22 05:33N 36°36' E 013°51'2120.9
2014-Aug-22 04:33N 36°41' E 013°25'2121.0
2014-Aug-22 03:33N 36°47' E 013°00'6220.8
2014-Aug-22 00:33N 37°06' E 011°46'2221.2
2014-Aug-21 23:32N 37°17' E 011°22'2121.0
2014-Aug-21 22:33N 37°27' E 010°60'2121.4
2014-Aug-21 21:33N 37°33' E 010°34'2221.6
2014-Aug-21 20:33N 37°35' E 010°07'2121.4
2014-Aug-21 19:33N 37°31' E 009°40'2221.3
2014-Aug-21 18:33N 37°27' E 009°14'2221.2
2014-Aug-21 17:31N 37°22' E 008°47'23320.8
2014-Aug-21 06:18N 37°19' E 003°53'6221.5
2014-Aug-21 03:25N 37°05' E 002°37'1821.0
2014-Aug-21 02:32N 37°03' E 002°14'2121.4
2014-Aug-21 01:32N 36°60' E 001°48'2121.4
2014-Aug-21 00:33N 36°55' E 001°22'2121.5
2014-Aug-20 23:33N 36°51' E 000°56'2121.2
2014-Aug-20 22:33N 36°46' E 000°30'2221.8
2014-Aug-20 21:33N 36°43' E 000°03'2322.5
2014-Aug-20 20:33N 36°38' W 000°24'2221.8
2014-Aug-20 19:33N 36°33' W 000°51'2221.7
2014-Aug-20 18:33N 36°30' W 001°17'2121.1
2014-Aug-20 17:33N 36°26' W 001°43'2221.4
2014-Aug-20 16:32N 36°22' W 002°10'  

Dump ship's entire track history